sensor_id;sensor_type;location;lat;lon;timestamp;pressure;altitude;pressure_sealevel;temperature;humidity
77027;BME280;65956;52.986;17.490;2023-08-06T03:28:34;99083.20;;;13.58;100.00
77027;BME280;65956;52.986;17.490;2023-08-06T03:31:01;99083.21;;;13.57;100.00
77027;BME280;65956;52.986;17.490;2023-08-06T03:33:30;99080.33;;;13.58;100.00
77027;BME280;65956;52.986;17.490;2023-08-06T03:35:58;99076.89;;;13.59;100.00
77027;BME280;65956;52.986;17.490;2023-08-06T03:38:24;99074.16;;;13.60;100.00
77027;BME280;65956;52.986;17.490;2023-08-06T03:40:50;99061.77;;;13.59;100.00
77027;BME280;65956;52.986;17.490;2023-08-06T03:43:17;99055.69;;;13.59;100.00
77027;BME280;65956;52.986;17.490;2023-08-06T03:45:43;99054.24;;;13.59;100.00
77027;BME280;65956;52.986;17.490;2023-08-06T03:48:10;99052.65;;;13.60;100.00
77027;BME280;65956;52.986;17.490;2023-08-06T03:50:36;99045.13;;;13.61;100.00
77027;BME280;65956;52.986;17.490;2023-08-06T03:53:02;99026.17;;;13.60;100.00
77027;BME280;65956;52.986;17.490;2023-08-06T03:55:28;99016.02;;;13.60;100.00
77027;BME280;65956;52.986;17.490;2023-08-06T03:57:54;99010.00;;;13.61;100.00
77027;BME280;65956;52.986;17.490;2023-08-06T04:00:21;99007.44;;;13.62;100.00
77027;BME280;65956;52.986;17.490;2023-08-06T04:02:48;98998.60;;;13.64;100.00
77027;BME280;65956;52.986;17.490;2023-08-06T04:05:15;98993.16;;;13.64;100.00
77027;BME280;65956;52.986;17.490;2023-08-06T04:07:42;98985.63;;;13.65;100.00
77027;BME280;65956;52.986;17.490;2023-08-06T04:10:08;98980.33;;;13.66;100.00
77027;BME280;65956;52.986;17.490;2023-08-06T04:12:34;98987.45;;;13.66;100.00
77027;BME280;65956;52.986;17.490;2023-08-06T04:15:02;98995.09;;;13.67;100.00
77027;BME280;65956;52.986;17.490;2023-08-06T04:17:29;98999.09;;;13.68;100.00
77027;BME280;65956;52.986;17.490;2023-08-06T04:19:55;98980.85;;;13.69;100.00
77027;BME280;65956;52.986;17.490;2023-08-06T04:22:24;98958.60;;;13.69;100.00
77027;BME280;65956;52.986;17.490;2023-08-06T04:24:50;98945.88;;;13.70;100.00
77027;BME280;65956;52.986;17.490;2023-08-06T04:27:18;98940.51;;;13.70;100.00
77027;BME280;65956;52.986;17.490;2023-08-06T04:29:45;98934.41;;;13.71;100.00
77027;BME280;65956;52.986;17.490;2023-08-06T04:32:12;98933.76;;;13.71;100.00
77027;BME280;65956;52.986;17.490;2023-08-06T04:34:41;98932.63;;;13.72;100.00
77027;BME280;65956;52.986;17.490;2023-08-06T04:37:09;98923.73;;;13.74;100.00
77027;BME280;65956;52.986;17.490;2023-08-06T04:39:35;98922.05;;;13.74;100.00
77027;BME280;65956;52.986;17.490;2023-08-06T04:42:04;98916.04;;;13.74;100.00
77027;BME280;65956;52.986;17.490;2023-08-06T04:44:31;98906.41;;;13.75;100.00
77027;BME280;65956;52.986;17.490;2023-08-06T04:46:57;98888.39;;;13.76;100.00
77027;BME280;65956;52.986;17.490;2023-08-06T04:49:23;98861.90;;;13.78;100.00
77027;BME280;65956;52.986;17.490;2023-08-06T04:51:49;98846.02;;;13.80;100.00
77027;BME280;65956;52.986;17.490;2023-08-06T04:54:15;98839.99;;;13.81;100.00
77027;BME280;65956;52.986;17.490;2023-08-06T04:56:41;98839.32;;;13.83;100.00
77027;BME280;65956;52.986;17.490;2023-08-06T04:59:07;98838.18;;;13.84;100.00
77027;BME280;65956;52.986;17.490;2023-08-06T05:01:33;98869.48;;;13.86;100.00
77027;BME280;65956;52.986;17.490;2023-08-06T05:03:58;98871.84;;;13.88;100.00
77027;BME280;65956;52.986;17.490;2023-08-06T05:06:24;98871.89;;;13.90;100.00
77027;BME280;65956;52.986;17.490;2023-08-06T05:08:50;98873.77;;;13.92;100.00
77027;BME280;65956;52.986;17.490;2023-08-06T05:11:16;98876.60;;;13.95;100.00
77027;BME280;65956;52.986;17.490;2023-08-06T05:13:42;98886.10;;;13.96;100.00
77027;BME280;65956;52.986;17.490;2023-08-06T05:16:08;98895.67;;;13.97;100.00
77027;BME280;65956;52.986;17.490;2023-08-06T05:18:34;98894.11;;;14.00;100.00
77027;BME280;65956;52.986;17.490;2023-08-06T05:21:00;98887.25;;;14.02;100.00
77027;BME280;65956;52.986;17.490;2023-08-06T05:23:26;98883.09;;;14.02;100.00
77027;BME280;65956;52.986;17.490;2023-08-06T05:25:52;98884.74;;;14.04;100.00
77027;BME280;65956;52.986;17.490;2023-08-06T05:28:18;98881.00;;;14.07;100.00
77027;BME280;65956;52.986;17.490;2023-08-06T05:30:44;98878.56;;;14.09;100.00
77027;BME280;65956;52.986;17.490;2023-08-06T05:33:10;98870.66;;;14.12;100.00
77027;BME280;65956;52.986;17.490;2023-08-06T05:35:36;98870.26;;;14.15;100.00
77027;BME280;65956;52.986;17.490;2023-08-06T05:38:02;98865.82;;;14.18;100.00
77027;BME280;65956;52.986;17.490;2023-08-06T05:40:28;98863.13;;;14.19;100.00
77027;BME280;65956;52.986;17.490;2023-08-06T05:42:54;98856.79;;;14.20;100.00
77027;BME280;65956;52.986;17.490;2023-08-06T05:45:21;98848.92;;;14.22;100.00
77027;BME280;65956;52.986;17.490;2023-08-06T05:47:50;98850.70;;;14.24;100.00
77027;BME280;65956;52.986;17.490;2023-08-06T05:50:16;98842.98;;;14.26;100.00
77027;BME280;65956;52.986;17.490;2023-08-06T05:52:41;98845.45;;;14.30;100.00
77027;BME280;65956;52.986;17.490;2023-08-06T05:55:08;98845.27;;;14.31;100.00
77027;BME280;65956;52.986;17.490;2023-08-06T05:57:34;98851.96;;;14.33;100.00
77027;BME280;65956;52.986;17.490;2023-08-06T06:00:00;98854.18;;;14.33;100.00
77027;BME280;65956;52.986;17.490;2023-08-06T06:02:26;98854.09;;;14.35;100.00
77027;BME280;65956;52.986;17.490;2023-08-06T06:04:52;98852.54;;;14.37;100.00
77027;BME280;65956;52.986;17.490;2023-08-06T06:07:18;98845.96;;;14.37;100.00
77027;BME280;65956;52.986;17.490;2023-08-06T06:09:44;98844.71;;;14.40;100.00
77027;BME280;65956;52.986;17.490;2023-08-06T06:12:10;98841.55;;;14.41;100.00
77027;BME280;65956;52.986;17.490;2023-08-06T06:14:36;98842.81;;;14.42;100.00
77027;BME280;65956;52.986;17.490;2023-08-06T06:17:02;98838.48;;;14.43;100.00
77027;BME280;65956;52.986;17.490;2023-08-06T06:19:28;98825.59;;;14.46;100.00
77027;BME280;65956;52.986;17.490;2023-08-06T06:21:54;98828.20;;;14.52;100.00
77027;BME280;65956;52.986;17.490;2023-08-06T06:24:23;98814.53;;;14.54;100.00
77027;BME280;65956;52.986;17.490;2023-08-06T06:26:49;98810.46;;;14.57;100.00
77027;BME280;65956;52.986;17.490;2023-08-06T06:29:15;98793.77;;;14.61;100.00
77027;BME280;65956;52.986;17.490;2023-08-06T06:31:41;98778.78;;;14.65;100.00
77027;BME280;65956;52.986;17.490;2023-08-06T06:34:07;98764.85;;;14.68;100.00
77027;BME280;65956;52.986;17.490;2023-08-06T06:36:33;98761.11;;;14.70;100.00
77027;BME280;65956;52.986;17.490;2023-08-06T06:38:59;98760.02;;;14.72;100.00
77027;BME280;65956;52.986;17.490;2023-08-06T06:41:24;98753.11;;;14.76;100.00
77027;BME280;65956;52.986;17.490;2023-08-06T06:43:52;98752.31;;;14.79;100.00
77027;BME280;65956;52.986;17.490;2023-08-06T06:46:18;98753.06;;;14.84;100.00
77027;BME280;65956;52.986;17.490;2023-08-06T06:48:44;98744.86;;;14.86;100.00
77027;BME280;65956;52.986;17.490;2023-08-06T06:51:10;98745.89;;;14.89;100.00
77027;BME280;65956;52.986;17.490;2023-08-06T06:53:36;98741.58;;;14.92;100.00
77027;BME280;65956;52.986;17.490;2023-08-06T06:56:03;98742.25;;;14.97;100.00
77027;BME280;65956;52.986;17.490;2023-08-06T06:58:31;98742.37;;;15.01;100.00
77027;BME280;65956;52.986;17.490;2023-08-06T07:00:57;98742.23;;;15.04;100.00
77027;BME280;65956;52.986;17.490;2023-08-06T07:03:24;98739.47;;;15.08;100.00
77027;BME280;65956;52.986;17.490;2023-08-06T07:05:50;98738.23;;;15.12;100.00
77027;BME280;65956;52.986;17.490;2023-08-06T07:08:17;98730.24;;;15.17;100.00
77027;BME280;65956;52.986;17.490;2023-08-06T07:10:43;98729.90;;;15.24;100.00
77027;BME280;65956;52.986;17.490;2023-08-06T07:13:09;98736.71;;;15.29;100.00
77027;BME280;65956;52.986;17.490;2023-08-06T07:15:36;98739.02;;;15.30;100.00
77027;BME280;65956;52.986;17.490;2023-08-06T07:18:02;98738.56;;;15.32;100.00
77027;BME280;65956;52.986;17.490;2023-08-06T07:20:28;98737.67;;;15.32;100.00
77027;BME280;65956;52.986;17.490;2023-08-06T07:23:00;98732.69;;;15.30;100.00
77027;BME280;65956;52.986;17.490;2023-08-06T07:25:26;98741.29;;;15.32;100.00
77027;BME280;65956;52.986;17.490;2023-08-06T07:27:52;98744.36;;;15.35;100.00
77027;BME280;65956;52.986;17.490;2023-08-06T07:30:18;98737.69;;;15.35;100.00
77027;BME280;65956;52.986;17.490;2023-08-06T07:32:44;98729.30;;;15.34;100.00
77027;BME280;65956;52.986;17.490;2023-08-06T07:35:10;98719.99;;;15.34;100.00
77027;BME280;65956;52.986;17.490;2023-08-06T07:37:39;98722.50;;;15.36;100.00
77027;BME280;65956;52.986;17.490;2023-08-06T07:40:05;98715.84;;;15.39;100.00
77027;BME280;65956;52.986;17.490;2023-08-06T07:42:31;98713.21;;;15.39;100.00
77027;BME280;65956;52.986;17.490;2023-08-06T07:44:58;98713.22;;;15.41;100.00
77027;BME280;65956;52.986;17.490;2023-08-06T07:47:27;98713.07;;;15.41;100.00
77027;BME280;65956;52.986;17.490;2023-08-06T07:49:53;98710.74;;;15.44;100.00
77027;BME280;65956;52.986;17.490;2023-08-06T07:52:18;98703.68;;;15.47;100.00
77027;BME280;65956;52.986;17.490;2023-08-06T07:54:45;98699.88;;;15.48;100.00
77027;BME280;65956;52.986;17.490;2023-08-06T07:57:11;98694.69;;;15.48;100.00
77027;BME280;65956;52.986;17.490;2023-08-06T07:59:37;98684.67;;;15.47;100.00
77027;BME280;65956;52.986;17.490;2023-08-06T08:02:03;98689.56;;;15.50;100.00
77027;BME280;65956;52.986;17.490;2023-08-06T08:04:30;98682.95;;;15.49;100.00
77027;BME280;65956;52.986;17.490;2023-08-06T08:06:55;98685.25;;;15.49;100.00
77027;BME280;65956;52.986;17.490;2023-08-06T08:09:21;98687.21;;;15.48;100.00
77027;BME280;65956;52.986;17.490;2023-08-06T08:11:47;98682.27;;;15.47;100.00
77027;BME280;65956;52.986;17.490;2023-08-06T08:14:13;98674.33;;;15.48;100.00
77027;BME280;65956;52.986;17.490;2023-08-06T08:16:39;98672.42;;;15.50;100.00
77027;BME280;65956;52.986;17.490;2023-08-06T08:19:05;98662.50;;;15.48;100.00
77027;BME280;65956;52.986;17.490;2023-08-06T08:21:31;98652.40;;;15.48;100.00
77027;BME280;65956;52.986;17.490;2023-08-06T08:24:00;98650.38;;;15.49;100.00
77027;BME280;65956;52.986;17.490;2023-08-06T08:26:27;98647.61;;;15.51;100.00
77027;BME280;65956;52.986;17.490;2023-08-06T08:28:56;98643.17;;;15.52;100.00
77027;BME280;65956;52.986;17.490;2023-08-06T08:31:22;98640.14;;;15.51;100.00
77027;BME280;65956;52.986;17.490;2023-08-06T08:33:48;98643.13;;;15.50;100.00
77027;BME280;65956;52.986;17.490;2023-08-06T08:36:14;98638.27;;;15.52;100.00
77027;BME280;65956;52.986;17.490;2023-08-06T08:38:40;98625.80;;;15.53;100.00
77027;BME280;65956;52.986;17.490;2023-08-06T08:41:09;98621.13;;;15.57;100.00
77027;BME280;65956;52.986;17.490;2023-08-06T08:43:36;98616.77;;;15.61;100.00
77027;BME280;65956;52.986;17.490;2023-08-06T08:46:04;98618.23;;;15.62;100.00
77027;BME280;65956;52.986;17.490;2023-08-06T08:48:31;98620.20;;;15.61;100.00
77027;BME280;65956;52.986;17.490;2023-08-06T08:50:58;98609.75;;;15.64;100.00
77027;BME280;65956;52.986;17.490;2023-08-06T08:53:25;98610.39;;;15.63;100.00
77027;BME280;65956;52.986;17.490;2023-08-06T08:55:53;98615.52;;;15.70;100.00
77027;BME280;65956;52.986;17.490;2023-08-06T08:58:19;98608.75;;;15.70;100.00
77027;BME280;65956;52.986;17.490;2023-08-06T09:00:46;98605.73;;;15.71;100.00
77027;BME280;65956;52.986;17.490;2023-08-06T09:03:14;98602.09;;;15.70;100.00
77027;BME280;65956;52.986;17.490;2023-08-06T09:05:44;98595.05;;;15.72;100.00
77027;BME280;65956;52.986;17.490;2023-08-06T09:08:12;98590.49;;;15.71;100.00
77027;BME280;65956;52.986;17.490;2023-08-06T09:10:43;98584.39;;;15.72;100.00
77027;BME280;65956;52.986;17.490;2023-08-06T09:13:09;98586.23;;;15.71;100.00
77027;BME280;65956;52.986;17.490;2023-08-06T09:15:38;98583.05;;;15.74;100.00
77027;BME280;65956;52.986;17.490;2023-08-06T09:18:10;98576.36;;;15.77;100.00
77027;BME280;65956;52.986;17.490;2023-08-06T09:20:38;98570.61;;;15.76;100.00
77027;BME280;65956;52.986;17.490;2023-08-06T09:23:08;98562.84;;;15.76;100.00
77027;BME280;65956;52.986;17.490;2023-08-06T09:25:38;98557.48;;;15.75;100.00
77027;BME280;65956;52.986;17.490;2023-08-06T09:28:05;98559.63;;;15.73;100.00
77027;BME280;65956;52.986;17.490;2023-08-06T09:30:36;98553.98;;;15.71;100.00
77027;BME280;65956;52.986;17.490;2023-08-06T09:33:03;98543.44;;;15.73;100.00
77027;BME280;65956;52.986;17.490;2023-08-06T09:35:30;98539.05;;;15.72;100.00
77027;BME280;65956;52.986;17.490;2023-08-06T09:38:10;98536.60;;;15.73;100.00
77027;BME280;65956;52.986;17.490;2023-08-06T09:40:38;98525.45;;;15.73;100.00
77027;BME280;65956;52.986;17.490;2023-08-06T09:43:05;98525.52;;;15.76;100.00
77027;BME280;65956;52.986;17.490;2023-08-06T09:45:33;98529.48;;;15.80;100.00
77027;BME280;65956;52.986;17.490;2023-08-06T09:48:00;98526.08;;;15.83;100.00
77027;BME280;65956;52.986;17.490;2023-08-06T09:50:30;98520.37;;;15.84;100.00
77027;BME280;65956;52.986;17.490;2023-08-06T09:52:59;98513.04;;;15.82;100.00
77027;BME280;65956;52.986;17.490;2023-08-06T09:55:26;98502.08;;;15.81;100.00
77027;BME280;65956;52.986;17.490;2023-08-06T09:57:53;98498.13;;;15.82;100.00
77027;BME280;65956;52.986;17.490;2023-08-06T10:00:19;98499.13;;;15.83;100.00
77027;BME280;65956;52.986;17.490;2023-08-06T10:02:46;98500.13;;;15.82;100.00
77027;BME280;65956;52.986;17.490;2023-08-06T10:05:15;98501.86;;;15.83;100.00
77027;BME280;65956;52.986;17.490;2023-08-06T10:07:43;98497.40;;;15.84;100.00
77027;BME280;65956;52.986;17.490;2023-08-06T10:10:10;98491.27;;;15.85;100.00
77027;BME280;65956;52.986;17.490;2023-08-06T10:12:46;98483.54;;;15.86;100.00
77027;BME280;65956;52.986;17.490;2023-08-06T10:15:16;98474.42;;;15.90;100.00
77027;BME280;65956;52.986;17.490;2023-08-06T10:17:45;98469.75;;;15.90;100.00
77027;BME280;65956;52.986;17.490;2023-08-06T10:20:13;98464.30;;;15.95;100.00
77027;BME280;65956;52.986;17.490;2023-08-06T10:22:43;98459.89;;;15.99;100.00
77027;BME280;65956;52.986;17.490;2023-08-06T10:25:16;98456.66;;;16.02;100.00
77027;BME280;65956;52.986;17.490;2023-08-06T10:32:52;98461.45;;;16.10;100.00
77027;BME280;65956;52.986;17.490;2023-08-06T10:35:41;98455.90;;;16.10;100.00
77027;BME280;65956;52.986;17.490;2023-08-06T10:38:18;98454.18;;;16.11;100.00
77027;BME280;65956;52.986;17.490;2023-08-06T10:40:50;98446.33;;;16.15;100.00
77027;BME280;65956;52.986;17.490;2023-08-06T10:43:26;98444.27;;;16.21;100.00
77027;BME280;65956;52.986;17.490;2023-08-06T10:45:52;98443.98;;;16.24;100.00
77027;BME280;65956;52.986;17.490;2023-08-06T10:51:02;98425.48;;;16.28;100.00
77027;BME280;65956;52.986;17.490;2023-08-06T10:53:29;98405.42;;;16.34;100.00
77027;BME280;65956;52.986;17.490;2023-08-06T10:55:55;98391.52;;;16.40;100.00
77027;BME280;65956;52.986;17.490;2023-08-06T10:58:21;98389.23;;;16.46;100.00
77027;BME280;65956;52.986;17.490;2023-08-06T11:00:47;98386.72;;;16.53;100.00
77027;BME280;65956;52.986;17.490;2023-08-06T11:03:14;98391.88;;;16.59;100.00
77027;BME280;65956;52.986;17.490;2023-08-06T11:05:40;98391.45;;;16.64;100.00
77027;BME280;65956;52.986;17.490;2023-08-06T11:08:06;98388.41;;;16.73;100.00
77027;BME280;65956;52.986;17.490;2023-08-06T11:10:33;98379.52;;;16.82;100.00
77027;BME280;65956;52.986;17.490;2023-08-06T11:13:03;98371.01;;;16.90;100.00
77027;BME280;65956;52.986;17.490;2023-08-06T11:15:32;98359.34;;;16.96;100.00
77027;BME280;65956;52.986;17.490;2023-08-06T11:17:58;98352.98;;;17.02;100.00
77027;BME280;65956;52.986;17.490;2023-08-06T11:20:24;98357.13;;;17.05;100.00
77027;BME280;65956;52.986;17.490;2023-08-06T11:22:50;98354.66;;;17.06;100.00
77027;BME280;65956;52.986;17.490;2023-08-06T11:25:20;98343.70;;;17.10;100.00
77027;BME280;65956;52.986;17.490;2023-08-06T11:27:47;98333.71;;;17.13;100.00
77027;BME280;65956;52.986;17.490;2023-08-06T11:30:14;98327.83;;;17.15;100.00
77027;BME280;65956;52.986;17.490;2023-08-06T11:32:47;98321.08;;;17.19;100.00
77027;BME280;65956;52.986;17.490;2023-08-06T11:35:17;98312.59;;;17.23;100.00
77027;BME280;65956;52.986;17.490;2023-08-06T11:37:44;98311.29;;;17.24;100.00
77027;BME280;65956;52.986;17.490;2023-08-06T11:40:14;98315.31;;;17.23;100.00
77027;BME280;65956;52.986;17.490;2023-08-06T11:42:41;98307.61;;;17.22;100.00
77027;BME280;65956;52.986;17.490;2023-08-06T11:45:08;98301.05;;;17.22;100.00
77027;BME280;65956;52.986;17.490;2023-08-06T11:47:38;98297.67;;;17.22;100.00
77027;BME280;65956;52.986;17.490;2023-08-06T11:50:08;98287.03;;;17.24;100.00
77027;BME280;65956;52.986;17.490;2023-08-06T11:52:34;98277.17;;;17.27;100.00
77027;BME280;65956;52.986;17.490;2023-08-06T11:55:03;98276.41;;;17.30;100.00
77027;BME280;65956;52.986;17.490;2023-08-06T11:57:34;98272.79;;;17.32;100.00
77027;BME280;65956;52.986;17.490;2023-08-06T12:00:09;98271.16;;;17.36;100.00
77027;BME280;65956;52.986;17.490;2023-08-06T12:02:44;98262.39;;;17.37;100.00
77027;BME280;65956;52.986;17.490;2023-08-06T12:05:15;98259.36;;;17.37;100.00
77027;BME280;65956;52.986;17.490;2023-08-06T12:07:44;98258.96;;;17.39;100.00
77027;BME280;65956;52.986;17.490;2023-08-06T12:10:12;98257.06;;;17.38;100.00
77027;BME280;65956;52.986;17.490;2023-08-06T12:12:39;98256.58;;;17.38;100.00
77027;BME280;65956;52.986;17.490;2023-08-06T12:15:06;98249.73;;;17.36;100.00
77027;BME280;65956;52.986;17.490;2023-08-06T12:17:33;98245.42;;;17.36;100.00
77027;BME280;65956;52.986;17.490;2023-08-06T12:20:00;98256.89;;;17.36;100.00
77027;BME280;65956;52.986;17.490;2023-08-06T12:22:26;98267.87;;;17.37;100.00
77027;BME280;65956;52.986;17.490;2023-08-06T12:24:52;98267.98;;;17.36;100.00
77027;BME280;65956;52.986;17.490;2023-08-06T12:27:18;98278.08;;;17.36;100.00
77027;BME280;65956;52.986;17.490;2023-08-06T12:29:47;98286.63;;;17.37;100.00
77027;BME280;65956;52.986;17.490;2023-08-06T12:32:14;98279.80;;;17.39;100.00
77027;BME280;65956;52.986;17.490;2023-08-06T12:34:42;98265.22;;;17.41;100.00
77027;BME280;65956;52.986;17.490;2023-08-06T12:37:09;98255.68;;;17.42;100.00
77027;BME280;65956;52.986;17.490;2023-08-06T12:39:37;98253.73;;;17.44;100.00
77027;BME280;65956;52.986;17.490;2023-08-06T12:42:05;98237.41;;;17.44;100.00
77027;BME280;65956;52.986;17.490;2023-08-06T12:44:32;98231.71;;;17.44;100.00
77027;BME280;65956;52.986;17.490;2023-08-06T12:46:59;98232.13;;;17.43;100.00
77027;BME280;65956;52.986;17.490;2023-08-06T12:49:25;98232.61;;;17.41;100.00
77027;BME280;65956;52.986;17.490;2023-08-06T12:51:53;98233.55;;;17.38;100.00
77027;BME280;65956;52.986;17.490;2023-08-06T12:54:20;98242.09;;;17.36;100.00
77027;BME280;65956;52.986;17.490;2023-08-06T12:56:47;98259.73;;;17.34;100.00
77027;BME280;65956;52.986;17.490;2023-08-06T12:59:14;98277.56;;;17.33;100.00
77027;BME280;65956;52.986;17.490;2023-08-06T13:01:42;98285.55;;;17.30;100.00
77027;BME280;65956;52.986;17.490;2023-08-06T13:04:08;98278.09;;;17.24;100.00
77027;BME280;65956;52.986;17.490;2023-08-06T13:06:34;98273.02;;;17.07;100.00
77027;BME280;65956;52.986;17.490;2023-08-06T13:09:03;98255.90;;;16.91;100.00
77027;BME280;65956;52.986;17.490;2023-08-06T13:11:30;98259.94;;;16.78;100.00
77027;BME280;65956;52.986;17.490;2023-08-06T13:14:05;98265.62;;;16.60;100.00
77027;BME280;65956;52.986;17.490;2023-08-06T13:16:33;98269.59;;;16.43;100.00
77027;BME280;65956;52.986;17.490;2023-08-06T13:18:59;98272.52;;;16.23;100.00
77027;BME280;65956;52.986;17.490;2023-08-06T13:22:14;98267.05;;;16.14;100.00
77027;BME280;65956;52.986;17.490;2023-08-06T13:24:22;98255.56;;;16.13;100.00
77027;BME280;65956;52.986;17.490;2023-08-06T13:26:49;98252.16;;;16.06;100.00
77027;BME280;65956;52.986;17.490;2023-08-06T13:29:16;98254.77;;;16.00;100.00
77027;BME280;65956;52.986;17.490;2023-08-06T13:31:42;98258.14;;;15.94;100.00
77027;BME280;65956;52.986;17.490;2023-08-06T13:34:08;98257.23;;;15.84;100.00
77027;BME280;65956;52.986;17.490;2023-08-06T13:36:37;98254.52;;;15.75;100.00
77027;BME280;65956;52.986;17.490;2023-08-06T13:39:02;98255.58;;;15.68;100.00
77027;BME280;65956;52.986;17.490;2023-08-06T13:41:31;98256.90;;;15.64;100.00
77027;BME280;65956;52.986;17.490;2023-08-06T13:43:58;98236.14;;;15.71;100.00
77027;BME280;65956;52.986;17.490;2023-08-06T13:46:29;98224.61;;;15.87;100.00
77027;BME280;65956;52.986;17.490;2023-08-06T13:49:02;98224.73;;;15.98;100.00
77027;BME280;65956;52.986;17.490;2023-08-06T13:51:35;98226.23;;;15.97;100.00
77027;BME280;65956;52.986;17.490;2023-08-06T13:54:06;98234.30;;;15.94;100.00
77027;BME280;65956;52.986;17.490;2023-08-06T13:56:37;98244.13;;;15.86;100.00
77027;BME280;65956;52.986;17.490;2023-08-06T13:59:06;98252.05;;;15.83;100.00
77027;BME280;65956;52.986;17.490;2023-08-06T14:01:35;98256.96;;;15.78;100.00
77027;BME280;65956;52.986;17.490;2023-08-06T14:04:02;98256.09;;;15.73;100.00
77027;BME280;65956;52.986;17.490;2023-08-06T14:06:28;98257.30;;;15.69;100.00
77027;BME280;65956;52.986;17.490;2023-08-06T14:08:55;98257.15;;;15.64;100.00
77027;BME280;65956;52.986;17.490;2023-08-06T14:11:22;98248.23;;;15.65;100.00
77027;BME280;65956;52.986;17.490;2023-08-06T14:13:48;98245.96;;;15.66;100.00
77027;BME280;65956;52.986;17.490;2023-08-06T14:16:20;98250.98;;;15.62;100.00
77027;BME280;65956;52.986;17.490;2023-08-06T14:18:49;98251.30;;;15.55;100.00
77027;BME280;65956;52.986;17.490;2023-08-06T14:21:15;98248.16;;;15.51;100.00
77027;BME280;65956;52.986;17.490;2023-08-06T14:23:41;98249.20;;;15.49;100.00
77027;BME280;65956;52.986;17.490;2023-08-06T14:26:07;98234.65;;;15.47;100.00
77027;BME280;65956;52.986;17.490;2023-08-06T14:28:36;98239.52;;;15.50;100.00
77027;BME280;65956;52.986;17.490;2023-08-06T14:31:02;98239.56;;;15.49;100.00
77027;BME280;65956;52.986;17.490;2023-08-06T14:33:28;98243.55;;;15.45;100.00
77027;BME280;65956;52.986;17.490;2023-08-06T14:35:54;98242.58;;;15.40;100.00
77027;BME280;65956;52.986;17.490;2023-08-06T14:38:21;98252.38;;;15.40;100.00
77027;BME280;65956;52.986;17.490;2023-08-06T14:40:47;98259.97;;;15.34;100.00
77027;BME280;65956;52.986;17.490;2023-08-06T14:43:17;98268.36;;;15.28;100.00
77027;BME280;65956;52.986;17.490;2023-08-06T14:45:45;98269.61;;;15.22;100.00
77027;BME280;65956;52.986;17.490;2023-08-06T14:48:11;98270.70;;;15.18;100.00
77027;BME280;65956;52.986;17.490;2023-08-06T14:50:37;98268.48;;;15.18;100.00
77027;BME280;65956;52.986;17.490;2023-08-06T14:53:05;98256.81;;;15.16;100.00
77027;BME280;65956;52.986;17.490;2023-08-06T14:55:32;98250.20;;;15.11;100.00
77027;BME280;65956;52.986;17.490;2023-08-06T14:58:00;98258.14;;;15.08;100.00
77027;BME280;65956;52.986;17.490;2023-08-06T15:00:31;98247.73;;;15.07;100.00
77027;BME280;65956;52.986;17.490;2023-08-06T15:03:05;98257.63;;;15.04;100.00
77027;BME280;65956;52.986;17.490;2023-08-06T15:05:34;98260.88;;;15.01;100.00
77027;BME280;65956;52.986;17.490;2023-08-06T15:08:01;98258.44;;;14.95;100.00
77027;BME280;65956;52.986;17.490;2023-08-06T15:10:30;98256.27;;;14.95;100.00
77027;BME280;65956;52.986;17.490;2023-08-06T15:12:56;98254.73;;;14.96;100.00
77027;BME280;65956;52.986;17.490;2023-08-06T15:15:23;98248.20;;;14.94;100.00
77027;BME280;65956;52.986;17.490;2023-08-06T15:17:49;98240.75;;;14.91;100.00
77027;BME280;65956;52.986;17.490;2023-08-06T15:20:19;98248.34;;;14.90;100.00
77027;BME280;65956;52.986;17.490;2023-08-06T15:22:48;98248.92;;;14.89;100.00
77027;BME280;65956;52.986;17.490;2023-08-06T15:25:14;98253.72;;;14.89;100.00
77027;BME280;65956;52.986;17.490;2023-08-06T15:27:40;98247.47;;;14.90;100.00
77027;BME280;65956;52.986;17.490;2023-08-06T15:30:09;98249.89;;;14.89;100.00
77027;BME280;65956;52.986;17.490;2023-08-06T15:32:36;98255.70;;;14.88;100.00
77027;BME280;65956;52.986;17.490;2023-08-06T15:35:08;98255.95;;;14.85;100.00
77027;BME280;65956;52.986;17.490;2023-08-06T15:37:36;98253.48;;;14.85;100.00
77027;BME280;65956;52.986;17.490;2023-08-06T15:40:03;98260.24;;;14.84;100.00
77027;BME280;65956;52.986;17.490;2023-08-06T15:42:29;98280.56;;;14.80;100.00
77027;BME280;65956;52.986;17.490;2023-08-06T15:44:55;98280.98;;;14.77;100.00
77027;BME280;65956;52.986;17.490;2023-08-06T15:47:21;98278.98;;;14.74;100.00
77027;BME280;65956;52.986;17.490;2023-08-06T15:49:48;98283.36;;;14.70;100.00
77027;BME280;65956;52.986;17.490;2023-08-06T15:52:15;98284.33;;;14.68;100.00
77027;BME280;65956;52.986;17.490;2023-08-06T15:54:49;98301.46;;;14.65;100.00
77027;BME280;65956;52.986;17.490;2023-08-06T15:57:15;98303.64;;;14.65;100.00
77027;BME280;65956;52.986;17.490;2023-08-06T15:59:43;98297.31;;;14.65;100.00
77027;BME280;65956;52.986;17.490;2023-08-06T16:02:09;98298.52;;;14.65;100.00
77027;BME280;65956;52.986;17.490;2023-08-06T16:04:35;98299.55;;;14.67;100.00
77027;BME280;65956;52.986;17.490;2023-08-06T16:07:03;98289.58;;;14.69;100.00
77027;BME280;65956;52.986;17.490;2023-08-06T16:09:32;98304.11;;;14.70;100.00
77027;BME280;65956;52.986;17.490;2023-08-06T16:11:58;98307.39;;;14.70;100.00
77027;BME280;65956;52.986;17.490;2023-08-06T16:14:24;98314.95;;;14.70;100.00
77027;BME280;65956;52.986;17.490;2023-08-06T16:16:51;98320.75;;;14.68;100.00